sensor_id;sensor_type;location;lat;lon;timestamp;pressure;altitude;pressure_sealevel;temperature;humidity
10462;BME280;5278;42.656;23.374;2023-12-29T00:00:06;95309.00;;;6.14;81.50
10462;BME280;5278;42.656;23.374;2023-12-29T00:02:35;95313.91;;;6.17;80.49
10462;BME280;5278;42.656;23.374;2023-12-29T00:05:04;95312.25;;;6.06;80.43
10462;BME280;5278;42.656;23.374;2023-12-29T00:07:31;95313.00;;;5.87;80.74
10462;BME280;5278;42.656;23.374;2023-12-29T00:09:57;95311.91;;;5.90;80.96
10462;BME280;5278;42.656;23.374;2023-12-29T00:12:24;95313.84;;;5.77;81.03
10462;BME280;5278;42.656;23.374;2023-12-29T00:14:51;95310.19;;;5.79;81.42
10462;BME280;5278;42.656;23.374;2023-12-29T00:17:18;95312.84;;;5.68;82.05
10462;BME280;5278;42.656;23.374;2023-12-29T00:19:45;95317.19;;;5.68;82.01
10462;BME280;5278;42.656;23.374;2023-12-29T00:22:13;95316.22;;;5.69;82.40
10462;BME280;5278;42.656;23.374;2023-12-29T00:24:40;95314.47;;;5.69;82.19
10462;BME280;5278;42.656;23.374;2023-12-29T00:27:07;95318.31;;;5.75;82.20
10462;BME280;5278;42.656;23.374;2023-12-29T00:29:35;95319.50;;;5.71;82.32
10462;BME280;5278;42.656;23.374;2023-12-29T00:32:01;95313.53;;;5.70;82.72
10462;BME280;5278;42.656;23.374;2023-12-29T00:34:29;95323.69;;;5.62;82.88
10462;BME280;5278;42.656;23.374;2023-12-29T00:36:56;95342.31;;;5.54;83.05
10462;BME280;5278;42.656;23.374;2023-12-29T00:39:24;95319.78;;;5.68;83.14
10462;BME280;5278;42.656;23.374;2023-12-29T00:41:54;95319.47;;;5.61;83.67
10462;BME280;5278;42.656;23.374;2023-12-29T00:44:21;95322.25;;;5.58;83.46
10462;BME280;5278;42.656;23.374;2023-12-29T00:46:48;95302.41;;;5.49;84.02
10462;BME280;5278;42.656;23.374;2023-12-29T00:49:15;95306.56;;;5.61;84.10
10462;BME280;5278;42.656;23.374;2023-12-29T00:51:43;95302.91;;;5.63;84.08
10462;BME280;5278;42.656;23.374;2023-12-29T00:54:10;95294.34;;;5.63;84.07
10462;BME280;5278;42.656;23.374;2023-12-29T00:56:38;95291.09;;;5.61;84.22
10462;BME280;5278;42.656;23.374;2023-12-29T00:59:05;95281.66;;;6.41;98.19
10462;BME280;5278;42.656;23.374;2023-12-29T01:01:33;95281.81;;;9.45;100.00
10462;BME280;5278;42.656;23.374;2023-12-29T01:04:01;95279.75;;;9.57;95.04
10462;BME280;5278;42.656;23.374;2023-12-29T01:06:28;95273.63;;;8.96;78.84
10462;BME280;5278;42.656;23.374;2023-12-29T01:08:55;95293.56;;;8.51;77.85
10462;BME280;5278;42.656;23.374;2023-12-29T01:11:21;95290.31;;;8.12;75.10
10462;BME280;5278;42.656;23.374;2023-12-29T01:13:50;95301.91;;;7.71;75.09
10462;BME280;5278;42.656;23.374;2023-12-29T01:16:17;95292.41;;;7.43;76.05
10462;BME280;5278;42.656;23.374;2023-12-29T01:18:43;95288.22;;;7.22;76.67
10462;BME280;5278;42.656;23.374;2023-12-29T01:21:10;95291.50;;;6.96;76.99
10462;BME280;5278;42.656;23.374;2023-12-29T01:23:37;95296.38;;;6.79;77.78
10462;BME280;5278;42.656;23.374;2023-12-29T01:26:04;95303.44;;;6.68;77.93
10462;BME280;5278;42.656;23.374;2023-12-29T01:28:31;95297.00;;;6.53;78.41
10462;BME280;5278;42.656;23.374;2023-12-29T01:30:59;95300.66;;;6.31;78.97
10462;BME280;5278;42.656;23.374;2023-12-29T01:33:28;95296.53;;;6.19;80.13
10462;BME280;5278;42.656;23.374;2023-12-29T01:35:55;95291.81;;;5.93;81.29
10462;BME280;5278;42.656;23.374;2023-12-29T01:38:22;95292.34;;;5.87;82.30
10462;BME280;5278;42.656;23.374;2023-12-29T01:40:49;95297.56;;;5.76;83.27
10462;BME280;5278;42.656;23.374;2023-12-29T01:43:16;95288.91;;;5.77;83.57
10462;BME280;5278;42.656;23.374;2023-12-29T01:45:43;95298.19;;;5.69;82.88
10462;BME280;5278;42.656;23.374;2023-12-29T01:48:11;95299.78;;;5.60;83.80
10462;BME280;5278;42.656;23.374;2023-12-29T01:50:39;95295.88;;;5.45;84.47
10462;BME280;5278;42.656;23.374;2023-12-29T01:53:06;95299.84;;;5.49;84.54
10462;BME280;5278;42.656;23.374;2023-12-29T01:55:33;95293.75;;;5.50;84.60
10462;BME280;5278;42.656;23.374;2023-12-29T01:58:02;95296.81;;;5.44;84.54
10462;BME280;5278;42.656;23.374;2023-12-29T02:00:29;95299.94;;;5.38;84.74
10462;BME280;5278;42.656;23.374;2023-12-29T02:02:57;95298.78;;;5.31;84.59
10462;BME280;5278;42.656;23.374;2023-12-29T02:05:26;95297.78;;;5.22;84.67
10462;BME280;5278;42.656;23.374;2023-12-29T02:07:56;95300.84;;;5.16;85.29
10462;BME280;5278;42.656;23.374;2023-12-29T02:10:23;95295.63;;;5.06;85.82
10462;BME280;5278;42.656;23.374;2023-12-29T02:12:50;95288.34;;;5.11;86.35
10462;BME280;5278;42.656;23.374;2023-12-29T02:15:19;95286.53;;;5.02;86.60
10462;BME280;5278;42.656;23.374;2023-12-29T02:17:51;95289.13;;;5.02;87.20
10462;BME280;5278;42.656;23.374;2023-12-29T02:20:19;95278.66;;;5.04;87.22
10462;BME280;5278;42.656;23.374;2023-12-29T02:22:48;95262.59;;;5.11;87.55
10462;BME280;5278;42.656;23.374;2023-12-29T02:25:17;95260.03;;;5.11;87.65
10462;BME280;5278;42.656;23.374;2023-12-29T02:27:49;95258.50;;;5.09;87.90
10462;BME280;5278;42.656;23.374;2023-12-29T02:30:24;95253.13;;;5.12;87.54
10462;BME280;5278;42.656;23.374;2023-12-29T02:32:55;95247.53;;;5.07;87.77
10462;BME280;5278;42.656;23.374;2023-12-29T02:35:28;95259.34;;;5.09;87.83
10462;BME280;5278;42.656;23.374;2023-12-29T02:37:56;95263.06;;;5.16;87.48
10462;BME280;5278;42.656;23.374;2023-12-29T02:40:25;95250.28;;;5.15;87.67
10462;BME280;5278;42.656;23.374;2023-12-29T02:42:53;95243.06;;;5.09;87.45
10462;BME280;5278;42.656;23.374;2023-12-29T02:45:21;95245.78;;;5.07;87.56
10462;BME280;5278;42.656;23.374;2023-12-29T02:47:49;95184.88;;;4.76;86.95
10462;BME280;5278;42.656;23.374;2023-12-29T02:50:16;95243.50;;;5.14;86.37
10462;BME280;5278;42.656;23.374;2023-12-29T02:52:43;95238.25;;;5.15;86.37
10462;BME280;5278;42.656;23.374;2023-12-29T02:55:09;95245.25;;;5.13;86.39
10462;BME280;5278;42.656;23.374;2023-12-29T02:57:38;95231.16;;;5.08;86.43
10462;BME280;5278;42.656;23.374;2023-12-29T03:00:06;95225.91;;;4.98;86.21
10462;BME280;5278;42.656;23.374;2023-12-29T03:02:33;95230.88;;;4.90;87.16
10462;BME280;5278;42.656;23.374;2023-12-29T03:05:00;95219.66;;;4.91;87.54
10462;BME280;5278;42.656;23.374;2023-12-29T03:07:27;95224.81;;;4.91;87.39
10462;BME280;5278;42.656;23.374;2023-12-29T03:09:54;95219.59;;;4.82;87.69
10462;BME280;5278;42.656;23.374;2023-12-29T03:12:21;95215.25;;;4.82;87.04
10462;BME280;5278;42.656;23.374;2023-12-29T03:14:50;95203.25;;;4.71;87.61
10462;BME280;5278;42.656;23.374;2023-12-29T03:17:16;95206.78;;;4.70;87.42
10462;BME280;5278;42.656;23.374;2023-12-29T03:19:43;95204.56;;;4.66;87.71
10462;BME280;5278;42.656;23.374;2023-12-29T03:22:10;95209.53;;;4.58;88.04
10462;BME280;5278;42.656;23.374;2023-12-29T03:24:40;95204.63;;;4.55;87.91
10462;BME280;5278;42.656;23.374;2023-12-29T03:27:07;95211.03;;;4.60;88.59
10462;BME280;5278;42.656;23.374;2023-12-29T03:29:34;95205.31;;;4.57;88.88
10462;BME280;5278;42.656;23.374;2023-12-29T03:32:03;95215.28;;;4.50;89.36
10462;BME280;5278;42.656;23.374;2023-12-29T03:34:30;95210.13;;;4.50;89.80
10462;BME280;5278;42.656;23.374;2023-12-29T03:36:58;95204.31;;;4.48;89.49
10462;BME280;5278;42.656;23.374;2023-12-29T03:39:25;95212.81;;;4.49;89.49
10462;BME280;5278;42.656;23.374;2023-12-29T03:41:52;95204.91;;;4.41;89.04
10462;BME280;5278;42.656;23.374;2023-12-29T03:44:18;95095.31;;;3.76;88.72
10462;BME280;5278;42.656;23.374;2023-12-29T03:46:45;95208.91;;;4.33;88.78
10462;BME280;5278;42.656;23.374;2023-12-29T03:49:14;95207.28;;;4.32;88.73
10462;BME280;5278;42.656;23.374;2023-12-29T03:51:40;95213.25;;;4.33;88.89
10462;BME280;5278;42.656;23.374;2023-12-29T03:54:07;95198.59;;;4.13;88.99
10462;BME280;5278;42.656;23.374;2023-12-29T03:56:34;95225.75;;;4.38;88.88
10462;BME280;5278;42.656;23.374;2023-12-29T03:59:01;95218.41;;;4.33;88.27
10462;BME280;5278;42.656;23.374;2023-12-29T04:01:28;95226.25;;;4.20;88.66
10462;BME280;5278;42.656;23.374;2023-12-29T04:03:55;95228.00;;;4.20;89.32
10462;BME280;5278;42.656;23.374;2023-12-29T04:06:23;95228.81;;;4.20;88.69
10462;BME280;5278;42.656;23.374;2023-12-29T04:08:50;95223.88;;;4.28;88.42
10462;BME280;5278;42.656;23.374;2023-12-29T04:11:17;95223.75;;;4.30;88.70
10462;BME280;5278;42.656;23.374;2023-12-29T04:13:44;95217.97;;;4.17;89.30
10462;BME280;5278;42.656;23.374;2023-12-29T04:16:10;95231.84;;;4.25;89.96
10462;BME280;5278;42.656;23.374;2023-12-29T04:18:37;95216.75;;;4.32;90.33
10462;BME280;5278;42.656;23.374;2023-12-29T04:21:04;95226.91;;;4.33;90.17
10462;BME280;5278;42.656;23.374;2023-12-29T04:23:32;95218.97;;;4.37;90.34
10462;BME280;5278;42.656;23.374;2023-12-29T04:25:59;95225.59;;;4.39;90.46
10462;BME280;5278;42.656;23.374;2023-12-29T04:28:26;95218.03;;;4.38;90.51
10462;BME280;5278;42.656;23.374;2023-12-29T04:30:53;95224.66;;;4.40;89.98
10462;BME280;5278;42.656;23.374;2023-12-29T04:33:20;95214.03;;;4.33;90.12
10462;BME280;5278;42.656;23.374;2023-12-29T04:35:47;95216.13;;;4.40;89.35
10462;BME280;5278;42.656;23.374;2023-12-29T04:38:13;95218.69;;;4.40;88.61
10462;BME280;5278;42.656;23.374;2023-12-29T04:40:44;95224.31;;;4.33;89.22
10462;BME280;5278;42.656;23.374;2023-12-29T04:43:14;95214.03;;;4.33;89.30
10462;BME280;5278;42.656;23.374;2023-12-29T04:45:43;95226.69;;;4.25;88.85
10462;BME280;5278;42.656;23.374;2023-12-29T04:48:10;95225.97;;;4.34;88.31
10462;BME280;5278;42.656;23.374;2023-12-29T04:50:38;95221.75;;;4.33;87.94
10462;BME280;5278;42.656;23.374;2023-12-29T04:53:06;95231.84;;;4.25;88.34
10462;BME280;5278;42.656;23.374;2023-12-29T04:55:34;95220.19;;;4.21;88.01
10462;BME280;5278;42.656;23.374;2023-12-29T04:58:03;95220.84;;;4.23;88.46
10462;BME280;5278;42.656;23.374;2023-12-29T05:00:30;95215.28;;;4.18;88.22
10462;BME280;5278;42.656;23.374;2023-12-29T05:02:57;95218.19;;;4.14;88.20
10462;BME280;5278;42.656;23.374;2023-12-29T05:05:24;95208.28;;;4.09;87.93
10462;BME280;5278;42.656;23.374;2023-12-29T05:07:51;95215.16;;;4.09;88.25
10462;BME280;5278;42.656;23.374;2023-12-29T05:10:20;95212.03;;;4.05;89.27
10462;BME280;5278;42.656;23.374;2023-12-29T05:12:47;95213.78;;;4.05;89.37
10462;BME280;5278;42.656;23.374;2023-12-29T05:15:15;95229.00;;;3.97;89.79
10462;BME280;5278;42.656;23.374;2023-12-29T05:17:42;95199.91;;;3.96;90.25
10462;BME280;5278;42.656;23.374;2023-12-29T05:20:10;95191.47;;;3.94;90.95
10462;BME280;5278;42.656;23.374;2023-12-29T05:22:36;95170.25;;;3.81;90.79
10462;BME280;5278;42.656;23.374;2023-12-29T05:25:04;95204.09;;;4.08;91.17
10462;BME280;5278;42.656;23.374;2023-12-29T05:27:31;95201.28;;;4.11;89.69
10462;BME280;5278;42.656;23.374;2023-12-29T05:29:58;95204.66;;;4.12;88.80
10462;BME280;5278;42.656;23.374;2023-12-29T05:32:29;95219.16;;;4.02;88.69
10462;BME280;5278;42.656;23.374;2023-12-29T05:34:55;95219.19;;;3.90;89.19
10462;BME280;5278;42.656;23.374;2023-12-29T05:37:22;95213.56;;;3.97;89.16
10462;BME280;5278;42.656;23.374;2023-12-29T05:39:49;95215.31;;;3.96;88.94
10462;BME280;5278;42.656;23.374;2023-12-29T05:42:16;95225.59;;;3.96;88.81
10462;BME280;5278;42.656;23.374;2023-12-29T05:44:43;95215.94;;;3.88;89.43
10462;BME280;5278;42.656;23.374;2023-12-29T05:47:10;95227.72;;;3.91;90.57
10462;BME280;5278;42.656;23.374;2023-12-29T05:49:39;95239.63;;;3.92;90.48
10462;BME280;5278;42.656;23.374;2023-12-29T05:52:05;95211.56;;;4.00;89.79
10462;BME280;5278;42.656;23.374;2023-12-29T05:54:33;95221.84;;;4.00;89.93
10462;BME280;5278;42.656;23.374;2023-12-29T05:57:00;95207.97;;;4.03;91.59
10462;BME280;5278;42.656;23.374;2023-12-29T05:59:27;95208.72;;;4.14;92.61
10462;BME280;5278;42.656;23.374;2023-12-29T06:01:54;95209.44;;;4.16;92.37
10462;BME280;5278;42.656;23.374;2023-12-29T06:04:23;95208.88;;;4.13;91.28
10462;BME280;5278;42.656;23.374;2023-12-29T06:06:51;95214.47;;;4.07;91.41
10462;BME280;5278;42.656;23.374;2023-12-29T06:09:18;95206.66;;;4.08;91.05
10462;BME280;5278;42.656;23.374;2023-12-29T06:11:45;95207.34;;;4.10;91.01
10462;BME280;5278;42.656;23.374;2023-12-29T06:14:12;95199.16;;;4.16;90.30
10462;BME280;5278;42.656;23.374;2023-12-29T06:16:40;95198.31;;;4.27;89.94
10462;BME280;5278;42.656;23.374;2023-12-29T06:19:07;95192.41;;;4.68;89.26
10462;BME280;5278;42.656;23.374;2023-12-29T06:21:40;95199.63;;;5.46;86.32
10462;BME280;5278;42.656;23.374;2023-12-29T06:24:09;95194.56;;;6.15;82.49
10462;BME280;5278;42.656;23.374;2023-12-29T06:26:36;95194.19;;;6.96;79.81
10462;BME280;5278;42.656;23.374;2023-12-29T06:29:07;95195.25;;;7.87;75.69
10462;BME280;5278;42.656;23.374;2023-12-29T06:31:34;95197.00;;;8.58;70.54
10462;BME280;5278;42.656;23.374;2023-12-29T06:34:00;95188.25;;;9.46;65.61
10462;BME280;5278;42.656;23.374;2023-12-29T06:36:28;95183.72;;;10.16;61.29
10462;BME280;5278;42.656;23.374;2023-12-29T06:38:55;95193.13;;;11.00;57.31
10462;BME280;5278;42.656;23.374;2023-12-29T06:41:24;95178.88;;;11.67;54.05
10462;BME280;5278;42.656;23.374;2023-12-29T06:43:51;95187.28;;;12.32;50.84
10462;BME280;5278;42.656;23.374;2023-12-29T06:46:18;95172.09;;;12.89;48.16
10462;BME280;5278;42.656;23.374;2023-12-29T06:48:45;95168.00;;;13.32;46.80
10462;BME280;5278;42.656;23.374;2023-12-29T06:51:16;95172.34;;;13.99;45.52
10462;BME280;5278;42.656;23.374;2023-12-29T06:53:44;95178.34;;;14.64;43.91
10462;BME280;5278;42.656;23.374;2023-12-29T06:56:13;95175.03;;;15.41;41.15
10462;BME280;5278;42.656;23.374;2023-12-29T06:58:42;95170.41;;;16.05;39.02
10462;BME280;5278;42.656;23.374;2023-12-29T07:01:09;95171.91;;;16.75;37.45
10462;BME280;5278;42.656;23.374;2023-12-29T07:03:36;95173.00;;;17.33;36.19
10462;BME280;5278;42.656;23.374;2023-12-29T07:06:03;95170.75;;;17.76;35.30
10462;BME280;5278;42.656;23.374;2023-12-29T07:08:30;95160.88;;;18.36;34.08
10462;BME280;5278;42.656;23.374;2023-12-29T07:10:58;95167.13;;;18.86;33.21
10462;BME280;5278;42.656;23.374;2023-12-29T07:13:25;95159.81;;;19.19;32.69
10462;BME280;5278;42.656;23.374;2023-12-29T07:15:53;95162.47;;;19.13;32.60
10462;BME280;5278;42.656;23.374;2023-12-29T07:18:20;95150.91;;;19.14;32.69
10462;BME280;5278;42.656;23.374;2023-12-29T07:20:47;95152.59;;;19.33;32.19
10462;BME280;5278;42.656;23.374;2023-12-29T07:23:14;95159.91;;;19.06;32.66
10462;BME280;5278;42.656;23.374;2023-12-29T07:25:41;95157.97;;;18.88;32.92
10462;BME280;5278;42.656;23.374;2023-12-29T07:28:08;95161.13;;;18.72;33.46
10462;BME280;5278;42.656;23.374;2023-12-29T07:30:35;95142.88;;;18.33;33.89
10462;BME280;5278;42.656;23.374;2023-12-29T07:33:04;95129.13;;;17.67;34.48
10462;BME280;5278;42.656;23.374;2023-12-29T07:35:33;95140.22;;;17.55;35.15
10462;BME280;5278;42.656;23.374;2023-12-29T07:38:00;95146.03;;;17.90;34.63
10462;BME280;5278;42.656;23.374;2023-12-29T07:40:28;95142.81;;;17.88;34.59
10462;BME280;5278;42.656;23.374;2023-12-29T07:42:55;95140.59;;;17.92;34.80
10462;BME280;5278;42.656;23.374;2023-12-29T07:45:22;95135.91;;;18.00;34.60
10462;BME280;5278;42.656;23.374;2023-12-29T07:47:50;95133.28;;;17.94;34.86
10462;BME280;5278;42.656;23.374;2023-12-29T07:50:18;95124.88;;;18.30;34.33
10462;BME280;5278;42.656;23.374;2023-12-29T07:52:46;95150.53;;;18.41;33.97
10462;BME280;5278;42.656;23.374;2023-12-29T07:55:13;95141.31;;;18.63;33.62
10462;BME280;5278;42.656;23.374;2023-12-29T07:57:41;95152.16;;;18.80;33.42
10462;BME280;5278;42.656;23.374;2023-12-29T08:00:09;95153.75;;;18.87;33.06
10462;BME280;5278;42.656;23.374;2023-12-29T08:02:36;95159.00;;;19.19;32.71
10462;BME280;5278;42.656;23.374;2023-12-29T08:05:02;95160.94;;;19.30;32.33
10462;BME280;5278;42.656;23.374;2023-12-29T08:07:30;95158.13;;;19.25;32.53
10462;BME280;5278;42.656;23.374;2023-12-29T08:09:59;95165.19;;;19.31;32.33
10462;BME280;5278;42.656;23.374;2023-12-29T08:12:26;95155.09;;;19.53;32.08
10462;BME280;5278;42.656;23.374;2023-12-29T08:14:55;95153.97;;;19.67;31.46
10462;BME280;5278;42.656;23.374;2023-12-29T08:17:22;95152.88;;;19.93;30.95
10462;BME280;5278;42.656;23.374;2023-12-29T08:19:49;95147.19;;;19.96;30.24
10462;BME280;5278;42.656;23.374;2023-12-29T08:22:16;95158.84;;;20.06;30.15
10462;BME280;5278;42.656;23.374;2023-12-29T08:24:45;95157.16;;;20.12;30.26
10462;BME280;5278;42.656;23.374;2023-12-29T08:27:12;95146.41;;;20.32;30.07
10462;BME280;5278;42.656;23.374;2023-12-29T08:29:39;95157.47;;;20.40;29.49
10462;BME280;5278;42.656;23.374;2023-12-29T08:32:06;95124.84;;;20.16;29.78
10462;BME280;5278;42.656;23.374;2023-12-29T08:34:33;95162.31;;;20.73;29.34
10462;BME280;5278;42.656;23.374;2023-12-29T08:37:00;95163.34;;;21.02;28.72
10462;BME280;5278;42.656;23.374;2023-12-29T08:39:27;95155.81;;;21.17;28.52
10462;BME280;5278;42.656;23.374;2023-12-29T08:41:56;95151.38;;;21.29;28.23
10462;BME280;5278;42.656;23.374;2023-12-29T08:44:22;95155.63;;;21.30;28.65
10462;BME280;5278;42.656;23.374;2023-12-29T08:46:49;95152.16;;;21.30;28.66
10462;BME280;5278;42.656;23.374;2023-12-29T08:49:16;95158.06;;;21.02;28.92
10462;BME280;5278;42.656;23.374;2023-12-29T08:51:43;95151.06;;;20.78;29.38
10462;BME280;5278;42.656;23.374;2023-12-29T08:54:10;95160.34;;;20.69;29.33
10462;BME280;5278;42.656;23.374;2023-12-29T08:56:37;95149.88;;;20.92;29.25
10462;BME280;5278;42.656;23.374;2023-12-29T08:59:07;95157.44;;;20.88;29.18
10462;BME280;5278;42.656;23.374;2023-12-29T09:01:34;95166.69;;;20.49;30.28
10462;BME280;5278;42.656;23.374;2023-12-29T09:04:00;95157.59;;;21.05;29.74
10462;BME280;5278;42.656;23.374;2023-12-29T09:06:28;95155.16;;;21.22;29.72
10462;BME280;5278;42.656;23.374;2023-12-29T09:08:55;95150.56;;;21.87;28.84
10462;BME280;5278;42.656;23.374;2023-12-29T09:11:22;95160.28;;;22.05;28.34
10462;BME280;5278;42.656;23.374;2023-12-29T09:13:48;95146.16;;;22.39;28.03
10462;BME280;5278;42.656;23.374;2023-12-29T09:16:17;95136.16;;;22.81;27.72
10462;BME280;5278;42.656;23.374;2023-12-29T09:18:43;95146.25;;;22.84;27.77
10462;BME280;5278;42.656;23.374;2023-12-29T09:21:11;95147.16;;;23.35;27.56
10462;BME280;5278;42.656;23.374;2023-12-29T09:23:38;95138.16;;;24.08;26.43
10462;BME280;5278;42.656;23.374;2023-12-29T09:26:05;95131.19;;;24.40;26.25
10462;BME280;5278;42.656;23.374;2023-12-29T09:28:33;95116.28;;;24.61;26.15
10462;BME280;5278;42.656;23.374;2023-12-29T09:31:00;95122.47;;;24.93;25.49
10462;BME280;5278;42.656;23.374;2023-12-29T09:33:28;95123.63;;;25.02;25.44
10462;BME280;5278;42.656;23.374;2023-12-29T09:35:55;95114.13;;;25.43;24.80
10462;BME280;5278;42.656;23.374;2023-12-29T09:38:22;95067.56;;;25.46;24.75
10462;BME280;5278;42.656;23.374;2023-12-29T09:40:50;95120.75;;;25.73;24.60
10462;BME280;5278;42.656;23.374;2023-12-29T09:43:19;95112.72;;;26.04;24.20
10462;BME280;5278;42.656;23.374;2023-12-29T09:45:47;95099.97;;;26.17;23.89
10462;BME280;5278;42.656;23.374;2023-12-29T09:48:18;95095.66;;;26.10;24.58
10462;BME280;5278;42.656;23.374;2023-12-29T09:50:49;95090.72;;;26.24;24.24
10462;BME280;5278;42.656;23.374;2023-12-29T09:53:19;95099.09;;;26.58;23.73
10462;BME280;5278;42.656;23.374;2023-12-29T09:55:48;95102.56;;;26.59;23.82
10462;BME280;5278;42.656;23.374;2023-12-29T09:58:15;95095.91;;;26.76;23.58
10462;BME280;5278;42.656;23.374;2023-12-29T10:00:46;95094.13;;;27.02;23.47
10462;BME280;5278;42.656;23.374;2023-12-29T10:03:13;95089.59;;;26.92;23.75
10462;BME280;5278;42.656;23.374;2023-12-29T10:05:40;95084.00;;;26.99;23.66
10462;BME280;5278;42.656;23.374;2023-12-29T10:08:09;95077.81;;;26.83;23.47
10462;BME280;5278;42.656;23.374;2023-12-29T10:10:38;95069.53;;;26.75;23.68
10462;BME280;5278;42.656;23.374;2023-12-29T10:13:08;95058.06;;;26.84;23.59
10462;BME280;5278;42.656;23.374;2023-12-29T10:15:41;95063.72;;;26.88;23.81
10462;BME280;5278;42.656;23.374;2023-12-29T10:18:14;95066.31;;;26.78;23.58
10462;BME280;5278;42.656;23.374;2023-12-29T10:20:54;95053.44;;;26.39;23.89
10462;BME280;5278;42.656;23.374;2023-12-29T10:23:30;95052.06;;;26.32;23.96
10462;BME280;5278;42.656;23.374;2023-12-29T10:25:59;95050.66;;;26.14;24.46
10462;BME280;5278;42.656;23.374;2023-12-29T10:28:26;95039.03;;;26.40;24.05
10462;BME280;5278;42.656;23.374;2023-12-29T10:30:53;95034.63;;;26.04;24.34
10462;BME280;5278;42.656;23.374;2023-12-29T10:33:20;95037.31;;;26.04;24.67
10462;BME280;5278;42.656;23.374;2023-12-29T10:36:03;95030.72;;;26.22;24.47
10462;BME280;5278;42.656;23.374;2023-12-29T10:38:34;95028.16;;;25.85;24.96
10462;BME280;5278;42.656;23.374;2023-12-29T10:41:11;95029.44;;;25.77;25.14
10462;BME280;5278;42.656;23.374;2023-12-29T10:43:40;94985.75;;;25.31;25.17
10462;BME280;5278;42.656;23.374;2023-12-29T10:46:08;95011.97;;;25.49;25.37
10462;BME280;5278;42.656;23.374;2023-12-29T10:48:35;95013.63;;;25.60;25.33
10462;BME280;5278;42.656;23.374;2023-12-29T10:51:02;94993.84;;;25.46;25.38
10462;BME280;5278;42.656;23.374;2023-12-29T10:53:30;94995.53;;;25.57;25.43
10462;BME280;5278;42.656;23.374;2023-12-29T10:55:58;94993.03;;;25.46;25.54
10462;BME280;5278;42.656;23.374;2023-12-29T10:58:25;94997.66;;;25.55;25.57
10462;BME280;5278;42.656;23.374;2023-12-29T11:00:54;94984.06;;;25.57;25.63
10462;BME280;5278;42.656;23.374;2023-12-29T11:03:22;94977.88;;;25.51;25.74
10462;BME280;5278;42.656;23.374;2023-12-29T11:05:49;94981.09;;;25.48;25.77
10462;BME280;5278;42.656;23.374;2023-12-29T11:08:17;94975.59;;;25.23;26.09
10462;BME280;5278;42.656;23.374;2023-12-29T11:10:48;94964.16;;;24.85;26.58
10462;BME280;5278;42.656;23.374;2023-12-29T11:13:16;94980.00;;;24.17;27.33
10462;BME280;5278;42.656;23.374;2023-12-29T11:15:44;94975.25;;;23.97;28.33
10462;BME280;5278;42.656;23.374;2023-12-29T11:18:13;94971.81;;;23.75;28.40
10462;BME280;5278;42.656;23.374;2023-12-29T11:20:41;94968.53;;;23.89;40.23
10462;BME280;5278;42.656;23.374;2023-12-29T11:23:09;94963.16;;;24.33;29.82
10462;BME280;5278;42.656;23.374;2023-12-29T11:25:38;94965.41;;;23.97;28.74
10462;BME280;5278;42.656;23.374;2023-12-29T11:28:06;94940.44;;;23.72;28.65
10462;BME280;5278;42.656;23.374;2023-12-29T11:30:36;94957.91;;;23.89;28.98
10462;BME280;5278;42.656;23.374;2023-12-29T11:33:10;94955.06;;;23.96;28.66
10462;BME280;5278;42.656;23.374;2023-12-29T11:35:44;94954.53;;;23.72;28.94
10462;BME280;5278;42.656;23.374;2023-12-29T11:38:23;94953.84;;;23.60;29.34
10462;BME280;5278;42.656;23.374;2023-12-29T11:40:59;94954.03;;;23.37;29.26
10462;BME280;5278;42.656;23.374;2023-12-29T11:43:28;94949.03;;;23.18;29.67
10462;BME280;5278;42.656;23.374;2023-12-29T11:45:56;94943.38;;;23.32;29.88
10462;BME280;5278;42.656;23.374;2023-12-29T11:48:54;94947.44;;;23.56;29.54
10462;BME280;5278;42.656;23.374;2023-12-29T11:51:32;94942.91;;;23.56;29.53
10462;BME280;5278;42.656;23.374;2023-12-29T11:54:01;94936.28;;;23.37;29.32
10462;BME280;5278;42.656;23.374;2023-12-29T11:56:37;94932.56;;;23.16;30.10
10462;BME280;5278;42.656;23.374;2023-12-29T11:59:15;94936.31;;;22.65;30.48
10462;BME280;5278;42.656;23.374;2023-12-29T12:01:47;94939.34;;;22.57;31.27
10462;BME280;5278;42.656;23.374;2023-12-29T12:04:39;94942.00;;;22.41;31.18
10462;BME280;5278;42.656;23.374;2023-12-29T12:07:09;94914.03;;;21.88;31.93
10462;BME280;5278;42.656;23.374;2023-12-29T12:09:36;94930.00;;;21.93;31.95
10462;BME280;5278;42.656;23.374;2023-12-29T12:12:03;94938.63;;;22.00;31.96
10462;BME280;5278;42.656;23.374;2023-12-29T12:14:45;94938.47;;;22.07;31.59
10462;BME280;5278;42.656;23.374;2023-12-29T12:17:26;94936.13;;;21.82;32.07
10462;BME280;5278;42.656;23.374;2023-12-29T12:19:57;94926.66;;;21.69;32.76
10462;BME280;5278;42.656;23.374;2023-12-29T12:22:24;94927.25;;;21.60;32.67
10462;BME280;5278;42.656;23.374;2023-12-29T12:24:55;94930.31;;;21.28;33.24
10462;BME280;5278;42.656;23.374;2023-12-29T12:27:23;94932.59;;;21.13;33.25
10462;BME280;5278;42.656;23.374;2023-12-29T12:29:53;94926.66;;;21.06;33.52
10462;BME280;5278;42.656;23.374;2023-12-29T12:32:23;94924.81;;;20.83;33.56
10462;BME280;5278;42.656;23.374;2023-12-29T12:34:51;94936.44;;;20.71;34.04
10462;BME280;5278;42.656;23.374;2023-12-29T12:37:19;94934.78;;;20.58;34.33
10462;BME280;5278;42.656;23.374;2023-12-29T12:39:46;94932.41;;;20.56;34.02
10462;BME280;5278;42.656;23.374;2023-12-29T12:42:13;94926.63;;;20.36;34.43
10462;BME280;5278;42.656;23.374;2023-12-29T12:44:42;94935.28;;;20.25;34.40
10462;BME280;5278;42.656;23.374;2023-12-29T12:47:18;94934.91;;;20.10;34.90
10462;BME280;5278;42.656;23.374;2023-12-29T12:49:49;94935.06;;;19.85;35.22
10462;BME280;5278;42.656;23.374;2023-12-29T12:52:16;94931.84;;;19.83;35.40
10462;BME280;5278;42.656;23.374;2023-12-29T12:54:43;94929.97;;;19.72;35.39
10462;BME280;5278;42.656;23.374;2023-12-29T12:57:10;94936.28;;;19.53;35.63
10462;BME280;5278;42.656;23.374;2023-12-29T12:59:37;94942.66;;;19.45;35.74
10462;BME280;5278;42.656;23.374;2023-12-29T13:02:07;94940.38;;;19.30;36.35
10462;BME280;5278;42.656;23.374;2023-12-29T13:04:35;94937.91;;;19.17;37.43
10462;BME280;5278;42.656;23.374;2023-12-29T13:07:03;94927.84;;;18.89;37.93
10462;BME280;5278;42.656;23.374;2023-12-29T13:09:31;94939.53;;;18.75;38.42